sensor_id;sensor_type;location;lat;lon;timestamp;P1;durP1;ratioP1;P2;durP2;ratioP2
45784;SDS011;31489;51.404;5.474;2024-01-11T00:00:57;29.55;;;15.63;;
45784;SDS011;31489;51.404;5.474;2024-01-11T00:03:24;30.67;;;16.30;;
45784;SDS011;31489;51.404;5.474;2024-01-11T00:05:49;30.77;;;16.02;;
45784;SDS011;31489;51.404;5.474;2024-01-11T00:08:15;29.92;;;15.82;;
45784;SDS011;31489;51.404;5.474;2024-01-11T00:10:41;33.92;;;16.52;;
45784;SDS011;31489;51.404;5.474;2024-01-11T00:13:07;31.70;;;15.85;;
45784;SDS011;31489;51.404;5.474;2024-01-11T00:15:32;30.10;;;15.90;;
45784;SDS011;31489;51.404;5.474;2024-01-11T00:17:58;30.35;;;15.90;;
45784;SDS011;31489;51.404;5.474;2024-01-11T00:20:24;26.02;;;15.50;;
45784;SDS011;31489;51.404;5.474;2024-01-11T00:22:49;31.80;;;17.35;;
45784;SDS011;31489;51.404;5.474;2024-01-11T00:25:15;30.95;;;16.63;;
45784;SDS011;31489;51.404;5.474;2024-01-11T00:27:41;33.10;;;16.88;;
45784;SDS011;31489;51.404;5.474;2024-01-11T00:30:06;33.47;;;16.35;;
45784;SDS011;31489;51.404;5.474;2024-01-11T00:32:32;30.70;;;15.40;;
45784;SDS011;31489;51.404;5.474;2024-01-11T00:34:58;28.00;;;14.80;;
45784;SDS011;31489;51.404;5.474;2024-01-11T00:37:23;27.75;;;15.45;;
45784;SDS011;31489;51.404;5.474;2024-01-11T00:39:50;29.20;;;16.50;;
45784;SDS011;31489;51.404;5.474;2024-01-11T00:42:15;29.08;;;16.33;;
45784;SDS011;31489;51.404;5.474;2024-01-11T00:44:41;28.58;;;15.25;;
45784;SDS011;31489;51.404;5.474;2024-01-11T00:47:06;28.90;;;16.27;;
45784;SDS011;31489;51.404;5.474;2024-01-11T00:49:32;27.58;;;15.98;;
45784;SDS011;31489;51.404;5.474;2024-01-11T00:51:57;30.75;;;16.73;;
45784;SDS011;31489;51.404;5.474;2024-01-11T00:54:23;28.05;;;15.57;;
45784;SDS011;31489;51.404;5.474;2024-01-11T00:56:49;32.03;;;15.70;;
45784;SDS011;31489;51.404;5.474;2024-01-11T00:59:15;28.92;;;16.20;;
45784;SDS011;31489;51.404;5.474;2024-01-11T01:01:46;26.98;;;16.38;;
45784;SDS011;31489;51.404;5.474;2024-01-11T01:04:12;33.10;;;16.55;;
45784;SDS011;31489;51.404;5.474;2024-01-11T01:06:38;30.48;;;15.73;;
45784;SDS011;31489;51.404;5.474;2024-01-11T01:09:03;33.28;;;17.35;;
45784;SDS011;31489;51.404;5.474;2024-01-11T01:11:29;28.60;;;16.23;;
45784;SDS011;31489;51.404;5.474;2024-01-11T01:13:55;30.17;;;16.20;;
45784;SDS011;31489;51.404;5.474;2024-01-11T01:16:20;37.92;;;16.95;;
45784;SDS011;31489;51.404;5.474;2024-01-11T01:18:46;29.00;;;16.40;;
45784;SDS011;31489;51.404;5.474;2024-01-11T01:21:11;27.63;;;16.05;;
45784;SDS011;31489;51.404;5.474;2024-01-11T01:23:37;33.22;;;17.05;;
45784;SDS011;31489;51.404;5.474;2024-01-11T01:26:03;30.10;;;16.70;;
45784;SDS011;31489;51.404;5.474;2024-01-11T01:28:28;29.58;;;16.05;;
45784;SDS011;31489;51.404;5.474;2024-01-11T01:30:54;31.70;;;17.23;;
45784;SDS011;31489;51.404;5.474;2024-01-11T01:33:19;29.48;;;15.68;;
45784;SDS011;31489;51.404;5.474;2024-01-11T01:35:45;33.15;;;16.65;;
45784;SDS011;31489;51.404;5.474;2024-01-11T01:38:11;33.30;;;16.77;;
45784;SDS011;31489;51.404;5.474;2024-01-11T01:40:37;31.67;;;16.73;;
45784;SDS011;31489;51.404;5.474;2024-01-11T01:43:06;31.30;;;16.38;;
45784;SDS011;31489;51.404;5.474;2024-01-11T01:45:33;32.25;;;16.75;;
45784;SDS011;31489;51.404;5.474;2024-01-11T01:47:59;29.50;;;16.20;;
45784;SDS011;31489;51.404;5.474;2024-01-11T01:50:25;34.40;;;16.60;;
45784;SDS011;31489;51.404;5.474;2024-01-11T01:52:51;29.45;;;16.80;;
45784;SDS011;31489;51.404;5.474;2024-01-11T01:55:17;31.48;;;16.48;;
45784;SDS011;31489;51.404;5.474;2024-01-11T01:57:44;30.85;;;15.95;;
45784;SDS011;31489;51.404;5.474;2024-01-11T02:00:12;32.30;;;16.05;;
45784;SDS011;31489;51.404;5.474;2024-01-11T02:02:39;31.95;;;17.05;;
45784;SDS011;31489;51.404;5.474;2024-01-11T02:05:07;35.72;;;17.10;;
45784;SDS011;31489;51.404;5.474;2024-01-11T02:07:35;32.17;;;17.48;;
45784;SDS011;31489;51.404;5.474;2024-01-11T02:10:01;31.52;;;16.70;;
45784;SDS011;31489;51.404;5.474;2024-01-11T02:12:28;31.95;;;16.48;;
45784;SDS011;31489;51.404;5.474;2024-01-11T02:14:54;34.00;;;17.45;;
45784;SDS011;31489;51.404;5.474;2024-01-11T02:17:20;31.70;;;17.40;;
45784;SDS011;31489;51.404;5.474;2024-01-11T02:19:46;30.25;;;16.35;;
45784;SDS011;31489;51.404;5.474;2024-01-11T02:22:17;31.88;;;16.48;;
45784;SDS011;31489;51.404;5.474;2024-01-11T02:24:47;31.93;;;16.97;;
45784;SDS011;31489;51.404;5.474;2024-01-11T02:27:12;30.40;;;16.55;;
45784;SDS011;31489;51.404;5.474;2024-01-11T02:29:38;33.28;;;16.92;;
45784;SDS011;31489;51.404;5.474;2024-01-11T02:32:04;26.60;;;15.25;;
45784;SDS011;31489;51.404;5.474;2024-01-11T02:34:31;33.17;;;16.88;;
45784;SDS011;31489;51.404;5.474;2024-01-11T02:36:58;34.53;;;17.00;;
45784;SDS011;31489;51.404;5.474;2024-01-11T02:39:24;30.20;;;16.15;;
45784;SDS011;31489;51.404;5.474;2024-01-11T02:41:51;30.25;;;15.98;;
45784;SDS011;31489;51.404;5.474;2024-01-11T02:44:17;30.60;;;16.33;;
45784;SDS011;31489;51.404;5.474;2024-01-11T02:46:43;31.15;;;16.20;;
45784;SDS011;31489;51.404;5.474;2024-01-11T02:49:08;31.13;;;17.02;;
45784;SDS011;31489;51.404;5.474;2024-01-11T02:51:34;34.80;;;16.58;;
45784;SDS011;31489;51.404;5.474;2024-01-11T02:54:00;28.77;;;16.08;;
45784;SDS011;31489;51.404;5.474;2024-01-11T02:56:26;30.30;;;16.83;;
45784;SDS011;31489;51.404;5.474;2024-01-11T02:58:52;30.75;;;16.40;;
45784;SDS011;31489;51.404;5.474;2024-01-11T03:01:17;28.20;;;15.40;;
45784;SDS011;31489;51.404;5.474;2024-01-11T03:03:43;31.05;;;15.90;;
45784;SDS011;31489;51.404;5.474;2024-01-11T03:06:09;29.75;;;16.30;;
45784;SDS011;31489;51.404;5.474;2024-01-11T03:08:35;29.65;;;17.02;;
45784;SDS011;31489;51.404;5.474;2024-01-11T03:11:00;32.75;;;17.50;;
45784;SDS011;31489;51.404;5.474;2024-01-11T03:13:26;34.40;;;18.35;;
45784;SDS011;31489;51.404;5.474;2024-01-11T03:15:56;30.80;;;15.57;;
45784;SDS011;31489;51.404;5.474;2024-01-11T03:18:22;28.95;;;16.02;;
45784;SDS011;31489;51.404;5.474;2024-01-11T03:20:48;28.08;;;16.05;;
45784;SDS011;31489;51.404;5.474;2024-01-11T03:23:13;29.52;;;16.73;;
45784;SDS011;31489;51.404;5.474;2024-01-11T03:25:39;31.38;;;16.75;;
45784;SDS011;31489;51.404;5.474;2024-01-11T03:28:04;30.75;;;17.67;;
45784;SDS011;31489;51.404;5.474;2024-01-11T03:30:30;30.63;;;16.38;;
45784;SDS011;31489;51.404;5.474;2024-01-11T03:32:55;32.60;;;16.35;;
45784;SDS011;31489;51.404;5.474;2024-01-11T03:35:21;29.75;;;15.80;;
45784;SDS011;31489;51.404;5.474;2024-01-11T03:37:47;30.23;;;16.33;;
45784;SDS011;31489;51.404;5.474;2024-01-11T03:40:12;31.45;;;16.70;;
45784;SDS011;31489;51.404;5.474;2024-01-11T03:42:39;33.42;;;17.33;;
45784;SDS011;31489;51.404;5.474;2024-01-11T03:45:05;33.08;;;18.23;;
45784;SDS011;31489;51.404;5.474;2024-01-11T03:47:30;36.55;;;16.50;;
45784;SDS011;31489;51.404;5.474;2024-01-11T03:49:56;33.95;;;16.17;;
45784;SDS011;31489;51.404;5.474;2024-01-11T03:52:22;33.60;;;17.52;;
45784;SDS011;31489;51.404;5.474;2024-01-11T03:54:47;31.17;;;17.33;;
45784;SDS011;31489;51.404;5.474;2024-01-11T03:57:13;33.33;;;17.73;;
45784;SDS011;31489;51.404;5.474;2024-01-11T03:59:39;32.42;;;16.35;;
45784;SDS011;31489;51.404;5.474;2024-01-11T04:02:05;35.05;;;17.50;;
45784;SDS011;31489;51.404;5.474;2024-01-11T04:04:32;42.88;;;19.25;;
45784;SDS011;31489;51.404;5.474;2024-01-11T04:06:57;32.58;;;17.35;;
45784;SDS011;31489;51.404;5.474;2024-01-11T04:09:23;30.40;;;16.70;;
45784;SDS011;31489;51.404;5.474;2024-01-11T04:11:49;36.42;;;17.80;;
45784;SDS011;31489;51.404;5.474;2024-01-11T04:14:14;34.92;;;17.17;;
45784;SDS011;31489;51.404;5.474;2024-01-11T04:16:40;28.75;;;15.85;;
45784;SDS011;31489;51.404;5.474;2024-01-11T04:19:06;36.40;;;17.48;;
45784;SDS011;31489;51.404;5.474;2024-01-11T04:21:32;30.45;;;16.20;;
45784;SDS011;31489;51.404;5.474;2024-01-11T04:23:58;33.03;;;16.15;;
45784;SDS011;31489;51.404;5.474;2024-01-11T04:26:23;31.33;;;17.15;;
45784;SDS011;31489;51.404;5.474;2024-01-11T04:28:52;32.65;;;15.63;;
45784;SDS011;31489;51.404;5.474;2024-01-11T04:31:18;29.98;;;15.88;;
45784;SDS011;31489;51.404;5.474;2024-01-11T04:33:44;33.40;;;17.48;;
45784;SDS011;31489;51.404;5.474;2024-01-11T04:36:10;37.08;;;17.92;;
45784;SDS011;31489;51.404;5.474;2024-01-11T04:38:36;30.42;;;15.80;;
45784;SDS011;31489;51.404;5.474;2024-01-11T04:41:03;33.22;;;16.50;;
45784;SDS011;31489;51.404;5.474;2024-01-11T04:43:39;30.27;;;16.40;;
45784;SDS011;31489;51.404;5.474;2024-01-11T04:46:12;29.40;;;16.02;;
45784;SDS011;31489;51.404;5.474;2024-01-11T04:48:56;29.80;;;16.27;;
45784;SDS011;31489;51.404;5.474;2024-01-11T04:51:21;29.20;;;16.98;;
45784;SDS011;31489;51.404;5.474;2024-01-11T04:53:47;33.55;;;16.27;;
45784;SDS011;31489;51.404;5.474;2024-01-11T04:56:13;33.00;;;16.42;;
45784;SDS011;31489;51.404;5.474;2024-01-11T04:58:41;31.70;;;16.65;;
45784;SDS011;31489;51.404;5.474;2024-01-11T05:01:10;32.55;;;16.30;;
45784;SDS011;31489;51.404;5.474;2024-01-11T05:03:37;30.23;;;16.38;;
45784;SDS011;31489;51.404;5.474;2024-01-11T05:06:03;27.70;;;14.68;;
45784;SDS011;31489;51.404;5.474;2024-01-11T05:08:29;31.92;;;16.38;;
45784;SDS011;31489;51.404;5.474;2024-01-11T05:10:55;31.00;;;15.25;;
45784;SDS011;31489;51.404;5.474;2024-01-11T05:13:20;30.40;;;16.10;;
45784;SDS011;31489;51.404;5.474;2024-01-11T05:15:46;33.70;;;17.50;;
45784;SDS011;31489;51.404;5.474;2024-01-11T05:18:12;34.75;;;16.60;;
45784;SDS011;31489;51.404;5.474;2024-01-11T05:20:38;35.33;;;17.48;;
45784;SDS011;31489;51.404;5.474;2024-01-11T05:23:04;29.15;;;16.25;;
45784;SDS011;31489;51.404;5.474;2024-01-11T05:25:30;35.72;;;16.63;;
45784;SDS011;31489;51.404;5.474;2024-01-11T05:28:02;31.73;;;16.05;;
45784;SDS011;31489;51.404;5.474;2024-01-11T05:30:28;34.65;;;16.88;;
45784;SDS011;31489;51.404;5.474;2024-01-11T05:32:54;34.83;;;17.35;;
45784;SDS011;31489;51.404;5.474;2024-01-11T05:35:20;26.45;;;15.20;;
45784;SDS011;31489;51.404;5.474;2024-01-11T05:37:48;30.77;;;16.58;;
45784;SDS011;31489;51.404;5.474;2024-01-11T05:40:14;33.90;;;16.73;;
45784;SDS011;31489;51.404;5.474;2024-01-11T05:42:40;30.15;;;16.30;;
45784;SDS011;31489;51.404;5.474;2024-01-11T05:45:06;28.52;;;16.05;;
45784;SDS011;31489;51.404;5.474;2024-01-11T05:47:32;29.40;;;15.82;;
45784;SDS011;31489;51.404;5.474;2024-01-11T05:49:57;32.78;;;16.10;;
45784;SDS011;31489;51.404;5.474;2024-01-11T05:52:23;31.20;;;15.63;;
45784;SDS011;31489;51.404;5.474;2024-01-11T05:54:48;29.25;;;16.35;;
45784;SDS011;31489;51.404;5.474;2024-01-11T05:57:14;29.65;;;15.98;;
45784;SDS011;31489;51.404;5.474;2024-01-11T05:59:43;29.05;;;15.57;;
45784;SDS011;31489;51.404;5.474;2024-01-11T06:02:10;29.13;;;15.15;;
45784;SDS011;31489;51.404;5.474;2024-01-11T06:04:36;29.08;;;15.38;;
45784;SDS011;31489;51.404;5.474;2024-01-11T06:07:01;28.17;;;15.20;;
45784;SDS011;31489;51.404;5.474;2024-01-11T06:09:27;29.65;;;15.32;;
45784;SDS011;31489;51.404;5.474;2024-01-11T06:11:53;33.55;;;16.30;;
45784;SDS011;31489;51.404;5.474;2024-01-11T06:14:18;28.27;;;15.13;;
45784;SDS011;31489;51.404;5.474;2024-01-11T06:16:44;28.40;;;14.25;;
45784;SDS011;31489;51.404;5.474;2024-01-11T06:19:10;29.15;;;15.27;;
45784;SDS011;31489;51.404;5.474;2024-01-11T06:21:36;32.08;;;14.88;;
45784;SDS011;31489;51.404;5.474;2024-01-11T06:24:01;30.27;;;15.05;;
45784;SDS011;31489;51.404;5.474;2024-01-11T06:26:28;31.75;;;15.93;;
45784;SDS011;31489;51.404;5.474;2024-01-11T06:28:54;29.13;;;15.13;;
45784;SDS011;31489;51.404;5.474;2024-01-11T06:31:19;28.13;;;14.82;;
45784;SDS011;31489;51.404;5.474;2024-01-11T06:33:45;27.05;;;14.95;;
45784;SDS011;31489;51.404;5.474;2024-01-11T06:36:11;28.15;;;15.45;;
45784;SDS011;31489;51.404;5.474;2024-01-11T06:38:37;27.65;;;15.18;;
45784;SDS011;31489;51.404;5.474;2024-01-11T06:41:02;30.55;;;15.70;;
45784;SDS011;31489;51.404;5.474;2024-01-11T06:43:28;29.60;;;15.98;;
45784;SDS011;31489;51.404;5.474;2024-01-11T06:45:54;30.25;;;15.95;;
45784;SDS011;31489;51.404;5.474;2024-01-11T06:48:19;29.73;;;15.48;;
45784;SDS011;31489;51.404;5.474;2024-01-11T06:50:45;28.25;;;14.25;;
45784;SDS011;31489;51.404;5.474;2024-01-11T06:53:11;27.83;;;14.70;;
45784;SDS011;31489;51.404;5.474;2024-01-11T06:55:36;28.38;;;14.20;;
45784;SDS011;31489;51.404;5.474;2024-01-11T06:58:02;31.67;;;15.10;;
45784;SDS011;31489;51.404;5.474;2024-01-11T07:00:28;26.48;;;14.13;;
45784;SDS011;31489;51.404;5.474;2024-01-11T07:02:54;28.55;;;14.55;;
45784;SDS011;31489;51.404;5.474;2024-01-11T07:05:20;27.63;;;14.70;;
45784;SDS011;31489;51.404;5.474;2024-01-11T07:07:46;26.90;;;14.50;;
45784;SDS011;31489;51.404;5.474;2024-01-11T07:10:11;26.38;;;15.00;;
45784;SDS011;31489;51.404;5.474;2024-01-11T07:12:37;24.05;;;13.45;;
45784;SDS011;31489;51.404;5.474;2024-01-11T07:15:05;23.65;;;14.55;;
45784;SDS011;31489;51.404;5.474;2024-01-11T07:17:32;30.50;;;15.00;;
45784;SDS011;31489;51.404;5.474;2024-01-11T07:19:58;28.05;;;14.02;;
45784;SDS011;31489;51.404;5.474;2024-01-11T07:22:24;27.00;;;13.82;;
45784;SDS011;31489;51.404;5.474;2024-01-11T07:24:50;28.67;;;14.15;;
45784;SDS011;31489;51.404;5.474;2024-01-11T07:27:15;26.63;;;13.20;;
45784;SDS011;31489;51.404;5.474;2024-01-11T07:29:41;25.58;;;12.77;;
45784;SDS011;31489;51.404;5.474;2024-01-11T07:32:06;27.88;;;14.68;;
45784;SDS011;31489;51.404;5.474;2024-01-11T07:34:32;22.75;;;13.20;;
45784;SDS011;31489;51.404;5.474;2024-01-11T07:36:58;27.65;;;13.82;;
45784;SDS011;31489;51.404;5.474;2024-01-11T07:39:24;26.30;;;15.18;;
45784;SDS011;31489;51.404;5.474;2024-01-11T07:41:49;27.40;;;14.30;;
45784;SDS011;31489;51.404;5.474;2024-01-11T07:44:15;26.60;;;13.10;;
45784;SDS011;31489;51.404;5.474;2024-01-11T07:46:41;24.95;;;13.98;;
45784;SDS011;31489;51.404;5.474;2024-01-11T07:49:07;24.17;;;13.32;;
45784;SDS011;31489;51.404;5.474;2024-01-11T07:51:33;24.58;;;14.05;;
45784;SDS011;31489;51.404;5.474;2024-01-11T07:54:01;22.77;;;12.48;;
45784;SDS011;31489;51.404;5.474;2024-01-11T07:56:30;26.23;;;13.82;;
45784;SDS011;31489;51.404;5.474;2024-01-11T07:58:55;25.42;;;13.70;;
45784;SDS011;31489;51.404;5.474;2024-01-11T08:01:21;26.02;;;13.63;;
45784;SDS011;31489;51.404;5.474;2024-01-11T08:03:47;25.33;;;13.20;;
45784;SDS011;31489;51.404;5.474;2024-01-11T08:06:12;25.27;;;12.63;;
45784;SDS011;31489;51.404;5.474;2024-01-11T08:08:38;25.42;;;13.27;;
45784;SDS011;31489;51.404;5.474;2024-01-11T08:11:07;23.10;;;13.48;;
45784;SDS011;31489;51.404;5.474;2024-01-11T08:13:33;23.00;;;13.00;;
45784;SDS011;31489;51.404;5.474;2024-01-11T08:16:00;25.10;;;13.07;;
45784;SDS011;31489;51.404;5.474;2024-01-11T08:18:28;26.00;;;13.45;;
45784;SDS011;31489;51.404;5.474;2024-01-11T08:20:55;22.73;;;13.13;;
45784;SDS011;31489;51.404;5.474;2024-01-11T08:23:21;24.30;;;13.80;;
45784;SDS011;31489;51.404;5.474;2024-01-11T08:25:46;26.80;;;13.40;;
45784;SDS011;31489;51.404;5.474;2024-01-11T08:28:12;23.83;;;12.55;;
45784;SDS011;31489;51.404;5.474;2024-01-11T08:30:38;23.75;;;14.65;;
45784;SDS011;31489;51.404;5.474;2024-01-11T08:33:03;23.00;;;13.98;;
45784;SDS011;31489;51.404;5.474;2024-01-11T08:35:29;24.77;;;12.82;;
45784;SDS011;31489;51.404;5.474;2024-01-11T08:37:57;27.33;;;13.60;;
45784;SDS011;31489;51.404;5.474;2024-01-11T08:40:23;22.15;;;12.63;;
45784;SDS011;31489;51.404;5.474;2024-01-11T08:42:48;26.02;;;13.27;;
45784;SDS011;31489;51.404;5.474;2024-01-11T08:45:14;25.15;;;13.68;;
45784;SDS011;31489;51.404;5.474;2024-01-11T08:47:43;24.85;;;13.85;;
45784;SDS011;31489;51.404;5.474;2024-01-11T08:50:14;25.33;;;14.00;;
45784;SDS011;31489;51.404;5.474;2024-01-11T08:52:41;21.70;;;13.23;;
45784;SDS011;31489;51.404;5.474;2024-01-11T08:55:07;24.42;;;13.65;;
45784;SDS011;31489;51.404;5.474;2024-01-11T08:57:33;26.75;;;13.77;;
45784;SDS011;31489;51.404;5.474;2024-01-11T09:00:01;27.70;;;14.57;;
45784;SDS011;31489;51.404;5.474;2024-01-11T09:02:27;27.45;;;14.60;;
45784;SDS011;31489;51.404;5.474;2024-01-11T09:04:53;23.52;;;12.15;;
45784;SDS011;31489;51.404;5.474;2024-01-11T09:07:18;27.17;;;14.70;;
45784;SDS011;31489;51.404;5.474;2024-01-11T09:09:44;22.77;;;13.82;;
45784;SDS011;31489;51.404;5.474;2024-01-11T09:12:10;23.35;;;12.95;;
45784;SDS011;31489;51.404;5.474;2024-01-11T09:14:36;25.67;;;13.43;;
45784;SDS011;31489;51.404;5.474;2024-01-11T09:17:02;27.00;;;13.35;;
45784;SDS011;31489;51.404;5.474;2024-01-11T09:19:31;25.25;;;13.15;;
45784;SDS011;31489;51.404;5.474;2024-01-11T09:21:59;24.20;;;14.43;;
45784;SDS011;31489;51.404;5.474;2024-01-11T09:24:25;26.38;;;14.45;;
45784;SDS011;31489;51.404;5.474;2024-01-11T09:26:51;23.48;;;13.93;;
45784;SDS011;31489;51.404;5.474;2024-01-11T09:29:17;24.45;;;14.25;;
45784;SDS011;31489;51.404;5.474;2024-01-11T09:31:42;26.10;;;14.30;;
45784;SDS011;31489;51.404;5.474;2024-01-11T09:34:08;26.67;;;13.95;;
45784;SDS011;31489;51.404;5.474;2024-01-11T09:36:34;26.45;;;14.18;;
45784;SDS011;31489;51.404;5.474;2024-01-11T09:38:59;29.02;;;14.55;;
45784;SDS011;31489;51.404;5.474;2024-01-11T09:41:25;25.90;;;14.05;;
45784;SDS011;31489;51.404;5.474;2024-01-11T09:43:52;24.60;;;13.85;;
45784;SDS011;31489;51.404;5.474;2024-01-11T09:46:19;27.80;;;14.43;;
45784;SDS011;31489;51.404;5.474;2024-01-11T09:48:46;25.38;;;13.65;;
45784;SDS011;31489;51.404;5.474;2024-01-11T09:51:14;25.20;;;14.85;;
45784;SDS011;31489;51.404;5.474;2024-01-11T09:53:41;28.48;;;14.73;;
45784;SDS011;31489;51.404;5.474;2024-01-11T09:56:08;23.80;;;13.77;;
45784;SDS011;31489;51.404;5.474;2024-01-11T09:58:35;28.83;;;14.75;;
45784;SDS011;31489;51.404;5.474;2024-01-11T10:01:08;24.35;;;14.85;;
45784;SDS011;31489;51.404;5.474;2024-01-11T10:03:38;22.95;;;13.75;;
45784;SDS011;31489;51.404;5.474;2024-01-11T10:06:05;22.88;;;15.02;;
45784;SDS011;31489;51.404;5.474;2024-01-11T10:08:32;23.00;;;15.07;;
45784;SDS011;31489;51.404;5.474;2024-01-11T10:10:57;25.55;;;14.10;;
45784;SDS011;31489;51.404;5.474;2024-01-11T10:13:27;18.10;;;13.02;;
45784;SDS011;31489;51.404;5.474;2024-01-11T10:16:04;19.13;;;13.45;;
45784;SDS011;31489;51.404;5.474;2024-01-11T10:18:31;20.15;;;13.90;;
45784;SDS011;31489;51.404;5.474;2024-01-11T10:20:57;20.25;;;13.35;;
45784;SDS011;31489;51.404;5.474;2024-01-11T10:23:22;18.92;;;13.93;;
45784;SDS011;31489;51.404;5.474;2024-01-11T10:25:48;20.55;;;14.50;;
45784;SDS011;31489;51.404;5.474;2024-01-11T10:28:14;20.40;;;15.10;;
45784;SDS011;31489;51.404;5.474;2024-01-11T10:30:40;18.67;;;14.38;;
45784;SDS011;31489;51.404;5.474;2024-01-11T10:33:06;21.15;;;14.68;;
45784;SDS011;31489;51.404;5.474;2024-01-11T10:35:33;19.92;;;13.00;;
45784;SDS011;31489;51.404;5.474;2024-01-11T10:38:00;18.98;;;14.00;;
45784;SDS011;31489;51.404;5.474;2024-01-11T10:40:32;18.13;;;13.35;;
45784;SDS011;31489;51.404;5.474;2024-01-11T10:42:58;19.02;;;14.50;;
45784;SDS011;31489;51.404;5.474;2024-01-11T10:45:26;19.42;;;14.70;;
45784;SDS011;31489;51.404;5.474;2024-01-11T10:47:53;18.38;;;13.15;;
45784;SDS011;31489;51.404;5.474;2024-01-11T10:50:22;19.50;;;14.27;;
45784;SDS011;31489;51.404;5.474;2024-01-11T10:53:12;20.40;;;13.50;;
45784;SDS011;31489;51.404;5.474;2024-01-11T10:55:34;17.55;;;13.38;;
45784;SDS011;31489;51.404;5.474;2024-01-11T10:58:00;16.58;;;13.15;;
45784;SDS011;31489;51.404;5.474;2024-01-11T11:00:28;18.55;;;13.68;;
45784;SDS011;31489;51.404;5.474;2024-01-11T11:02:54;17.33;;;13.43;;
45784;SDS011;31489;51.404;5.474;2024-01-11T11:05:21;21.13;;;13.88;;
45784;SDS011;31489;51.404;5.474;2024-01-11T11:07:50;19.45;;;14.18;;
45784;SDS011;31489;51.404;5.474;2024-01-11T11:10:18;16.23;;;13.30;;
45784;SDS011;31489;51.404;5.474;2024-01-11T11:12:44;17.35;;;13.07;;
45784;SDS011;31489;51.404;5.474;2024-01-11T11:15:12;19.45;;;14.10;;
45784;SDS011;31489;51.404;5.474;2024-01-11T11:17:42;14.90;;;12.73;;
45784;SDS011;31489;51.404;5.474;2024-01-11T11:20:09;18.13;;;13.82;;
45784;SDS011;31489;51.404;5.474;2024-01-11T11:22:41;19.58;;;14.18;;
45784;SDS011;31489;51.404;5.474;2024-01-11T11:25:08;17.70;;;14.27;;
45784;SDS011;31489;51.404;5.474;2024-01-11T11:27:35;16.13;;;13.27;;
45784;SDS011;31489;51.404;5.474;2024-01-11T11:30:02;18.27;;;13.48;;
45784;SDS011;31489;51.404;5.474;2024-01-11T11:32:38;17.50;;;13.30;;
45784;SDS011;31489;51.404;5.474;2024-01-11T11:35:08;20.92;;;13.85;;
45784;SDS011;31489;51.404;5.474;2024-01-11T11:37:37;16.33;;;13.43;;
45784;SDS011;31489;51.404;5.474;2024-01-11T11:40:05;17.63;;;13.80;;
45784;SDS011;31489;51.404;5.474;2024-01-11T11:42:32;17.30;;;14.02;;
45784;SDS011;31489;51.404;5.474;2024-01-11T11:44:59;17.33;;;13.48;;
45784;SDS011;31489;51.404;5.474;2024-01-11T11:47:25;16.48;;;13.40;;
45784;SDS011;31489;51.404;5.474;2024-01-11T11:50:09;27.58;;;15.02;;
45784;SDS011;31489;51.404;5.474;2024-01-11T11:52:39;17.98;;;14.27;;
45784;SDS011;31489;51.404;5.474;2024-01-11T11:55:07;18.88;;;14.25;;
45784;SDS011;31489;51.404;5.474;2024-01-11T11:57:33;15.73;;;13.60;;
45784;SDS011;31489;51.404;5.474;2024-01-11T12:00:00;19.08;;;14.68;;
45784;SDS011;31489;51.404;5.474;2024-01-11T12:02:32;18.27;;;14.27;;
45784;SDS011;31489;51.404;5.474;2024-01-11T12:05:01;16.63;;;14.00;;
45784;SDS011;31489;51.404;5.474;2024-01-11T12:07:27;17.85;;;14.43;;
45784;SDS011;31489;51.404;5.474;2024-01-11T12:09:53;17.33;;;13.93;;
45784;SDS011;31489;51.404;5.474;2024-01-11T12:12:18;17.77;;;14.93;;
45784;SDS011;31489;51.404;5.474;2024-01-11T12:14:46;18.45;;;14.52;;
45784;SDS011;31489;51.404;5.474;2024-01-11T12:17:12;18.02;;;13.95;;
45784;SDS011;31489;51.404;5.474;2024-01-11T12:19:38;18.95;;;14.88;;
45784;SDS011;31489;51.404;5.474;2024-01-11T12:22:04;17.80;;;14.43;;
45784;SDS011;31489;51.404;5.474;2024-01-11T12:24:30;24.48;;;15.82;;
45784;SDS011;31489;51.404;5.474;2024-01-11T12:26:56;18.58;;;14.65;;
45784;SDS011;31489;51.404;5.474;2024-01-11T12:29:22;19.45;;;16.00;;
45784;SDS011;31489;51.404;5.474;2024-01-11T12:31:49;20.92;;;15.93;;
45784;SDS011;31489;51.404;5.474;2024-01-11T12:34:16;23.83;;;16.30;;
45784;SDS011;31489;51.404;5.474;2024-01-11T12:36:41;23.15;;;16.75;;
45784;SDS011;31489;51.404;5.474;2024-01-11T12:39:08;23.23;;;16.60;;
45784;SDS011;31489;51.404;5.474;2024-01-11T12:41:35;22.77;;;16.55;;
45784;SDS011;31489;51.404;5.474;2024-01-11T12:44:01;21.27;;;16.63;;
45784;SDS011;31489;51.404;5.474;2024-01-11T12:46:27;22.85;;;17.38;;
45784;SDS011;31489;51.404;5.474;2024-01-11T12:48:53;21.90;;;15.95;;
45784;SDS011;31489;51.404;5.474;2024-01-11T12:51:19;22.63;;;15.68;;
45784;SDS011;31489;51.404;5.474;2024-01-11T12:53:46;21.33;;;15.88;;
45784;SDS011;31489;51.404;5.474;2024-01-11T12:56:16;22.17;;;16.25;;
45784;SDS011;31489;51.404;5.474;2024-01-11T12:58:43;21.50;;;16.65;;
45784;SDS011;31489;51.404;5.474;2024-01-11T13:01:11;22.08;;;16.58;;
45784;SDS011;31489;51.404;5.474;2024-01-11T13:03:38;22.88;;;17.00;;
45784;SDS011;31489;51.404;5.474;2024-01-11T13:06:04;22.30;;;16.60;;
45784;SDS011;31489;51.404;5.474;2024-01-11T13:08:33;20.67;;;15.70;;
45784;SDS011;31489;51.404;5.474;2024-01-11T13:11:04;19.98;;;16.10;;
45784;SDS011;31489;51.404;5.474;2024-01-11T13:13:34;23.00;;;16.38;;
45784;SDS011;31489;51.404;5.474;2024-01-11T13:16:00;23.98;;;17.45;;
45784;SDS011;31489;51.404;5.474;2024-01-11T13:18:31;20.90;;;16.02;;
45784;SDS011;31489;51.404;5.474;2024-01-11T13:20:59;22.52;;;16.10;;
45784;SDS011;31489;51.404;5.474;2024-01-11T13:23:24;22.73;;;16.00;;
45784;SDS011;31489;51.404;5.474;2024-01-11T13:25:50;22.48;;;16.40;;
45784;SDS011;31489;51.404;5.474;2024-01-11T13:28:16;20.40;;;16.08;;
45784;SDS011;31489;51.404;5.474;2024-01-11T13:30:43;22.23;;;16.50;;
45784;SDS011;31489;51.404;5.474;2024-01-11T13:33:10;27.63;;;17.80;;
45784;SDS011;31489;51.404;5.474;2024-01-11T13:35:37;23.60;;;15.85;;
45784;SDS011;31489;51.404;5.474;2024-01-11T13:38:04;25.10;;;17.88;;
45784;SDS011;31489;51.404;5.474;2024-01-11T13:40:33;21.30;;;16.52;;
45784;SDS011;31489;51.404;5.474;2024-01-11T13:42:59;24.15;;;16.60;;
45784;SDS011;31489;51.404;5.474;2024-01-11T13:45:25;24.95;;;17.45;;
45784;SDS011;31489;51.404;5.474;2024-01-11T13:47:51;22.70;;;16.30;;
45784;SDS011;31489;51.404;5.474;2024-01-11T13:50:24;24.42;;;16.88;;
45784;SDS011;31489;51.404;5.474;2024-01-11T13:52:50;23.67;;;16.65;;
45784;SDS011;31489;51.404;5.474;2024-01-11T13:55:19;24.65;;;17.08;;
45784;SDS011;31489;51.404;5.474;2024-01-11T13:57:46;22.85;;;16.48;;
45784;SDS011;31489;51.404;5.474;2024-01-11T14:00:13;21.27;;;16.63;;
45784;SDS011;31489;51.404;5.474;2024-01-11T14:02:38;22.90;;;16.45;;
45784;SDS011;31489;51.404;5.474;2024-01-11T14:05:06;21.70;;;16.27;;
45784;SDS011;31489;51.404;5.474;2024-01-11T14:07:34;24.65;;;17.63;;
45784;SDS011;31489;51.404;5.474;2024-01-11T14:10:00;22.67;;;16.23;;
45784;SDS011;31489;51.404;5.474;2024-01-11T14:12:26;23.50;;;16.88;;
45784;SDS011;31489;51.404;5.474;2024-01-11T14:14:51;22.10;;;16.33;;
45784;SDS011;31489;51.404;5.474;2024-01-11T14:17:17;22.92;;;17.13;;